sensor_id;sensor_type;location;lat;lon;timestamp;temperature;humidity
56103;DHT22;41970;48.774;9.280;2023-07-16T00:01:32;23.10;99.90
56103;DHT22;41970;48.774;9.280;2023-07-16T00:03:57;23.10;99.90
56103;DHT22;41970;48.774;9.280;2023-07-16T00:06:23;23.00;99.90
56103;DHT22;41970;48.774;9.280;2023-07-16T00:08:49;23.00;99.90
56103;DHT22;41970;48.774;9.280;2023-07-16T00:11:15;22.90;99.90
56103;DHT22;41970;48.774;9.280;2023-07-16T00:13:40;22.80;99.90
56103;DHT22;41970;48.774;9.280;2023-07-16T00:16:11;22.80;99.90
56103;DHT22;41970;48.774;9.280;2023-07-16T00:18:39;22.80;99.90
56103;DHT22;41970;48.774;9.280;2023-07-16T00:21:05;22.80;99.90
56103;DHT22;41970;48.774;9.280;2023-07-16T00:23:30;22.70;99.90
56103;DHT22;41970;48.774;9.280;2023-07-16T00:25:57;22.60;99.90
56103;DHT22;41970;48.774;9.280;2023-07-16T00:28:23;22.60;99.90
56103;DHT22;41970;48.774;9.280;2023-07-16T00:30:49;22.50;99.90
56103;DHT22;41970;48.774;9.280;2023-07-16T00:33:15;22.70;99.90
56103;DHT22;41970;48.774;9.280;2023-07-16T00:35:47;22.70;99.90
56103;DHT22;41970;48.774;9.280;2023-07-16T00:38:13;22.70;99.90
56103;DHT22;41970;48.774;9.280;2023-07-16T00:40:39;22.60;99.90
56103;DHT22;41970;48.774;9.280;2023-07-16T00:43:05;22.60;99.90
56103;DHT22;41970;48.774;9.280;2023-07-16T00:45:30;22.50;99.90
56103;DHT22;41970;48.774;9.280;2023-07-16T00:47:56;22.60;99.90
56103;DHT22;41970;48.774;9.280;2023-07-16T00:50:22;22.60;99.90
56103;DHT22;41970;48.774;9.280;2023-07-16T00:52:49;22.60;99.90
56103;DHT22;41970;48.774;9.280;2023-07-16T00:55:15;22.50;99.90
56103;DHT22;41970;48.774;9.280;2023-07-16T00:57:41;22.40;99.90
56103;DHT22;41970;48.774;9.280;2023-07-16T01:00:07;22.30;99.90
56103;DHT22;41970;48.774;9.280;2023-07-16T01:02:33;22.20;99.90
56103;DHT22;41970;48.774;9.280;2023-07-16T01:04:59;22.10;99.90
56103;DHT22;41970;48.774;9.280;2023-07-16T01:07:27;21.90;99.90
56103;DHT22;41970;48.774;9.280;2023-07-16T01:09:55;21.90;99.90
56103;DHT22;41970;48.774;9.280;2023-07-16T01:12:22;21.90;99.90
56103;DHT22;41970;48.774;9.280;2023-07-16T01:14:49;22.00;99.90
56103;DHT22;41970;48.774;9.280;2023-07-16T01:17:16;22.00;99.90
56103;DHT22;41970;48.774;9.280;2023-07-16T01:19:42;22.00;99.90
56103;DHT22;41970;48.774;9.280;2023-07-16T01:22:28;22.10;99.90
56103;DHT22;41970;48.774;9.280;2023-07-16T01:28:04;22.30;99.90
56103;DHT22;41970;48.774;9.280;2023-07-16T01:30:31;22.30;99.90
56103;DHT22;41970;48.774;9.280;2023-07-16T01:32:57;22.10;99.90
56103;DHT22;41970;48.774;9.280;2023-07-16T01:35:24;21.90;99.90
56103;DHT22;41970;48.774;9.280;2023-07-16T01:37:51;21.70;99.90
56103;DHT22;41970;48.774;9.280;2023-07-16T01:40:17;21.80;99.90
56103;DHT22;41970;48.774;9.280;2023-07-16T01:42:42;21.90;99.90
56103;DHT22;41970;48.774;9.280;2023-07-16T01:45:08;21.80;99.90
56103;DHT22;41970;48.774;9.280;2023-07-16T01:50:15;21.70;99.90
56103;DHT22;41970;48.774;9.280;2023-07-16T01:52:40;21.70;99.90
56103;DHT22;41970;48.774;9.280;2023-07-16T01:55:06;21.60;99.90
56103;DHT22;41970;48.774;9.280;2023-07-16T01:57:32;21.80;99.90
56103;DHT22;41970;48.774;9.280;2023-07-16T01:59:58;21.90;99.90
56103;DHT22;41970;48.774;9.280;2023-07-16T02:02:24;22.00;99.90
56103;DHT22;41970;48.774;9.280;2023-07-16T02:04:50;22.10;99.90
56103;DHT22;41970;48.774;9.280;2023-07-16T02:07:15;22.10;99.90
56103;DHT22;41970;48.774;9.280;2023-07-16T02:09:41;22.10;99.90
56103;DHT22;41970;48.774;9.280;2023-07-16T02:12:07;22.10;99.90
56103;DHT22;41970;48.774;9.280;2023-07-16T02:14:32;22.10;99.90
56103;DHT22;41970;48.774;9.280;2023-07-16T02:16:58;22.10;99.90
56103;DHT22;41970;48.774;9.280;2023-07-16T02:19:24;22.00;99.90
56103;DHT22;41970;48.774;9.280;2023-07-16T02:21:51;21.90;99.90
56103;DHT22;41970;48.774;9.280;2023-07-16T02:24:17;22.00;99.90
56103;DHT22;41970;48.774;9.280;2023-07-16T02:26:42;22.00;99.90
56103;DHT22;41970;48.774;9.280;2023-07-16T02:29:08;21.90;99.90
56103;DHT22;41970;48.774;9.280;2023-07-16T02:31:35;22.00;99.90
56103;DHT22;41970;48.774;9.280;2023-07-16T02:34:01;21.90;99.90
56103;DHT22;41970;48.774;9.280;2023-07-16T02:36:27;21.90;99.90
56103;DHT22;41970;48.774;9.280;2023-07-16T02:38:52;21.90;99.90
56103;DHT22;41970;48.774;9.280;2023-07-16T02:41:18;22.00;99.90
56103;DHT22;41970;48.774;9.280;2023-07-16T02:43:45;22.10;99.90
56103;DHT22;41970;48.774;9.280;2023-07-16T02:46:12;21.90;99.90
56103;DHT22;41970;48.774;9.280;2023-07-16T02:48:37;21.80;99.90
56103;DHT22;41970;48.774;9.280;2023-07-16T02:51:03;21.70;99.90
56103;DHT22;41970;48.774;9.280;2023-07-16T02:53:29;21.70;99.90
56103;DHT22;41970;48.774;9.280;2023-07-16T02:55:54;21.70;99.90
56103;DHT22;41970;48.774;9.280;2023-07-16T02:58:20;21.70;99.90
56103;DHT22;41970;48.774;9.280;2023-07-16T03:00:46;21.80;99.90
56103;DHT22;41970;48.774;9.280;2023-07-16T03:03:12;21.70;99.90
56103;DHT22;41970;48.774;9.280;2023-07-16T03:05:37;21.60;99.90
56103;DHT22;41970;48.774;9.280;2023-07-16T03:08:03;21.40;99.90
56103;DHT22;41970;48.774;9.280;2023-07-16T03:10:29;21.30;99.90
56103;DHT22;41970;48.774;9.280;2023-07-16T03:12:55;21.30;99.90
56103;DHT22;41970;48.774;9.280;2023-07-16T03:15:21;21.40;99.90
56103;DHT22;41970;48.774;9.280;2023-07-16T03:17:46;21.20;99.90
56103;DHT22;41970;48.774;9.280;2023-07-16T03:20:12;21.00;99.90
56103;DHT22;41970;48.774;9.280;2023-07-16T03:22:38;21.00;99.90
56103;DHT22;41970;48.774;9.280;2023-07-16T03:25:04;21.00;99.90
56103;DHT22;41970;48.774;9.280;2023-07-16T03:27:30;21.00;99.90
56103;DHT22;41970;48.774;9.280;2023-07-16T03:29:56;21.00;99.90
56103;DHT22;41970;48.774;9.280;2023-07-16T03:32:22;21.00;99.90
56103;DHT22;41970;48.774;9.280;2023-07-16T03:34:48;21.00;99.90
56103;DHT22;41970;48.774;9.280;2023-07-16T03:37:14;20.80;99.90
56103;DHT22;41970;48.774;9.280;2023-07-16T03:39:39;20.80;99.90
56103;DHT22;41970;48.774;9.280;2023-07-16T03:42:05;20.90;99.90
56103;DHT22;41970;48.774;9.280;2023-07-16T03:44:31;20.90;99.90
56103;DHT22;41970;48.774;9.280;2023-07-16T03:46:57;21.10;99.90
56103;DHT22;41970;48.774;9.280;2023-07-16T03:49:22;21.10;99.90
56103;DHT22;41970;48.774;9.280;2023-07-16T03:51:48;21.00;99.90
56103;DHT22;41970;48.774;9.280;2023-07-16T03:54:14;20.90;99.90
56103;DHT22;41970;48.774;9.280;2023-07-16T03:56:39;20.80;99.90
56103;DHT22;41970;48.774;9.280;2023-07-16T03:59:05;20.90;99.90
56103;DHT22;41970;48.774;9.280;2023-07-16T04:01:31;20.90;99.90
56103;DHT22;41970;48.774;9.280;2023-07-16T04:03:56;20.90;99.90
56103;DHT22;41970;48.774;9.280;2023-07-16T04:06:22;20.90;99.90
56103;DHT22;41970;48.774;9.280;2023-07-16T04:08:48;20.80;99.90
56103;DHT22;41970;48.774;9.280;2023-07-16T04:11:14;20.80;99.90
56103;DHT22;41970;48.774;9.280;2023-07-16T04:13:40;20.70;99.90
56103;DHT22;41970;48.774;9.280;2023-07-16T04:16:06;20.60;99.90
56103;DHT22;41970;48.774;9.280;2023-07-16T04:18:31;20.60;99.90
56103;DHT22;41970;48.774;9.280;2023-07-16T04:20:57;20.60;99.90
56103;DHT22;41970;48.774;9.280;2023-07-16T04:23:23;20.50;99.90
56103;DHT22;41970;48.774;9.280;2023-07-16T04:25:55;20.30;99.90
56103;DHT22;41970;48.774;9.280;2023-07-16T04:28:21;20.20;99.90
56103;DHT22;41970;48.774;9.280;2023-07-16T04:30:47;20.10;99.90
56103;DHT22;41970;48.774;9.280;2023-07-16T04:33:13;19.90;99.90
56103;DHT22;41970;48.774;9.280;2023-07-16T04:35:39;19.70;99.90
56103;DHT22;41970;48.774;9.280;2023-07-16T04:38:05;19.70;99.90
56103;DHT22;41970;48.774;9.280;2023-07-16T04:40:30;19.80;99.90
56103;DHT22;41970;48.774;9.280;2023-07-16T04:42:56;19.90;99.90
56103;DHT22;41970;48.774;9.280;2023-07-16T04:45:22;19.90;99.90
56103;DHT22;41970;48.774;9.280;2023-07-16T04:47:48;20.10;99.90
56103;DHT22;41970;48.774;9.280;2023-07-16T04:50:14;20.10;99.90
56103;DHT22;41970;48.774;9.280;2023-07-16T04:52:39;20.10;99.90
56103;DHT22;41970;48.774;9.280;2023-07-16T04:55:06;20.00;99.90
56103;DHT22;41970;48.774;9.280;2023-07-16T04:57:33;19.90;99.90
56103;DHT22;41970;48.774;9.280;2023-07-16T04:59:59;20.00;99.90
56103;DHT22;41970;48.774;9.280;2023-07-16T05:02:24;20.00;99.90
56103;DHT22;41970;48.774;9.280;2023-07-16T05:04:50;19.90;99.90
56103;DHT22;41970;48.774;9.280;2023-07-16T05:07:16;20.00;99.90
56103;DHT22;41970;48.774;9.280;2023-07-16T05:09:43;20.00;99.90
56103;DHT22;41970;48.774;9.280;2023-07-16T05:12:09;20.00;99.90
56103;DHT22;41970;48.774;9.280;2023-07-16T05:14:47;20.00;99.90
56103;DHT22;41970;48.774;9.280;2023-07-16T05:17:14;20.00;99.90
56103;DHT22;41970;48.774;9.280;2023-07-16T05:19:39;20.10;99.90
56103;DHT22;41970;48.774;9.280;2023-07-16T05:22:06;20.10;99.90
56103;DHT22;41970;48.774;9.280;2023-07-16T05:24:32;20.20;99.90
56103;DHT22;41970;48.774;9.280;2023-07-16T05:26:58;20.20;99.90
56103;DHT22;41970;48.774;9.280;2023-07-16T05:29:25;20.30;99.90
56103;DHT22;41970;48.774;9.280;2023-07-16T05:31:50;20.20;99.90
56103;DHT22;41970;48.774;9.280;2023-07-16T05:34:17;20.20;99.90
56103;DHT22;41970;48.774;9.280;2023-07-16T05:36:43;20.10;99.90
56103;DHT22;41970;48.774;9.280;2023-07-16T05:39:12;20.10;99.90
56103;DHT22;41970;48.774;9.280;2023-07-16T05:41:39;20.20;99.90
56103;DHT22;41970;48.774;9.280;2023-07-16T05:44:05;20.20;99.90
56103;DHT22;41970;48.774;9.280;2023-07-16T05:46:31;20.30;99.90
56103;DHT22;41970;48.774;9.280;2023-07-16T05:48:56;20.40;99.90
56103;DHT22;41970;48.774;9.280;2023-07-16T05:51:22;20.40;99.90
56103;DHT22;41970;48.774;9.280;2023-07-16T05:53:48;20.50;99.90
56103;DHT22;41970;48.774;9.280;2023-07-16T05:56:14;20.50;99.90
56103;DHT22;41970;48.774;9.280;2023-07-16T05:58:41;20.60;99.90
56103;DHT22;41970;48.774;9.280;2023-07-16T06:01:06;20.70;99.90
56103;DHT22;41970;48.774;9.280;2023-07-16T06:03:32;20.80;99.90
56103;DHT22;41970;48.774;9.280;2023-07-16T06:05:58;20.90;99.90
56103;DHT22;41970;48.774;9.280;2023-07-16T06:08:23;21.00;99.90
56103;DHT22;41970;48.774;9.280;2023-07-16T06:10:50;20.90;99.90
56103;DHT22;41970;48.774;9.280;2023-07-16T06:13:17;20.90;99.90
56103;DHT22;41970;48.774;9.280;2023-07-16T06:15:43;21.00;99.90
56103;DHT22;41970;48.774;9.280;2023-07-16T06:18:10;21.00;99.90
56103;DHT22;41970;48.774;9.280;2023-07-16T06:20:36;21.10;99.90
56103;DHT22;41970;48.774;9.280;2023-07-16T06:23:01;21.10;99.90
56103;DHT22;41970;48.774;9.280;2023-07-16T06:25:27;21.20;99.90
56103;DHT22;41970;48.774;9.280;2023-07-16T06:27:53;21.20;99.90
56103;DHT22;41970;48.774;9.280;2023-07-16T06:30:18;21.20;99.90
56103;DHT22;41970;48.774;9.280;2023-07-16T06:32:45;21.10;99.90
56103;DHT22;41970;48.774;9.280;2023-07-16T06:35:11;21.00;99.90
56103;DHT22;41970;48.774;9.280;2023-07-16T06:37:37;21.00;99.90
56103;DHT22;41970;48.774;9.280;2023-07-16T06:40:04;21.00;99.90
56103;DHT22;41970;48.774;9.280;2023-07-16T06:42:31;21.10;99.90
56103;DHT22;41970;48.774;9.280;2023-07-16T06:44:56;21.10;99.90
56103;DHT22;41970;48.774;9.280;2023-07-16T06:47:22;21.10;99.90
56103;DHT22;41970;48.774;9.280;2023-07-16T06:49:48;21.00;99.90
56103;DHT22;41970;48.774;9.280;2023-07-16T06:52:22;21.10;99.90
56103;DHT22;41970;48.774;9.280;2023-07-16T06:54:48;21.20;99.90
56103;DHT22;41970;48.774;9.280;2023-07-16T06:57:14;21.20;99.90
56103;DHT22;41970;48.774;9.280;2023-07-16T06:59:39;21.30;99.90
56103;DHT22;41970;48.774;9.280;2023-07-16T07:02:06;21.30;99.90
56103;DHT22;41970;48.774;9.280;2023-07-16T07:04:31;21.30;99.90
56103;DHT22;41970;48.774;9.280;2023-07-16T07:06:58;21.30;99.90
56103;DHT22;41970;48.774;9.280;2023-07-16T07:09:24;21.30;99.90
56103;DHT22;41970;48.774;9.280;2023-07-16T07:11:50;21.30;99.90
56103;DHT22;41970;48.774;9.280;2023-07-16T07:14:16;21.30;99.90
56103;DHT22;41970;48.774;9.280;2023-07-16T07:16:42;21.40;99.90
56103;DHT22;41970;48.774;9.280;2023-07-16T07:19:08;21.60;99.90
56103;DHT22;41970;48.774;9.280;2023-07-16T07:21:34;21.80;99.90
56103;DHT22;41970;48.774;9.280;2023-07-16T07:23:59;22.00;99.90
56103;DHT22;41970;48.774;9.280;2023-07-16T07:26:25;22.20;99.90
56103;DHT22;41970;48.774;9.280;2023-07-16T07:28:51;22.40;99.90
56103;DHT22;41970;48.774;9.280;2023-07-16T07:31:17;22.80;99.90
56103;DHT22;41970;48.774;9.280;2023-07-16T07:33:45;23.10;99.90
56103;DHT22;41970;48.774;9.280;2023-07-16T07:36:11;23.30;99.90
56103;DHT22;41970;48.774;9.280;2023-07-16T07:38:37;23.50;99.90
56103;DHT22;41970;48.774;9.280;2023-07-16T07:41:05;23.80;99.90
56103;DHT22;41970;48.774;9.280;2023-07-16T07:43:31;24.00;99.90
56103;DHT22;41970;48.774;9.280;2023-07-16T07:45:57;24.10;99.90
56103;DHT22;41970;48.774;9.280;2023-07-16T07:48:22;24.10;99.90
56103;DHT22;41970;48.774;9.280;2023-07-16T07:50:48;24.10;99.90
56103;DHT22;41970;48.774;9.280;2023-07-16T07:53:14;24.00;99.90
56103;DHT22;41970;48.774;9.280;2023-07-16T07:55:40;23.90;99.80
56103;DHT22;41970;48.774;9.280;2023-07-16T07:58:07;24.00;99.90
56103;DHT22;41970;48.774;9.280;2023-07-16T08:00:33;24.10;98.40
56103;DHT22;41970;48.774;9.280;2023-07-16T08:03:00;24.20;98.80
56103;DHT22;41970;48.774;9.280;2023-07-16T08:05:26;24.10;99.90
56103;DHT22;41970;48.774;9.280;2023-07-16T08:07:52;23.90;99.90
56103;DHT22;41970;48.774;9.280;2023-07-16T08:10:19;23.90;99.90
56103;DHT22;41970;48.774;9.280;2023-07-16T08:12:46;23.90;99.90
56103;DHT22;41970;48.774;9.280;2023-07-16T08:15:12;23.90;99.00
56103;DHT22;41970;48.774;9.280;2023-07-16T08:17:41;24.00;99.90
56103;DHT22;41970;48.774;9.280;2023-07-16T08:20:08;24.10;99.10
56103;DHT22;41970;48.774;9.280;2023-07-16T08:22:34;23.90;98.80
56103;DHT22;41970;48.774;9.280;2023-07-16T08:25:00;23.80;99.70
56103;DHT22;41970;48.774;9.280;2023-07-16T08:27:25;23.70;98.90
56103;DHT22;41970;48.774;9.280;2023-07-16T08:29:51;23.60;99.70
56103;DHT22;41970;48.774;9.280;2023-07-16T08:32:18;23.60;99.60
56103;DHT22;41970;48.774;9.280;2023-07-16T08:34:43;23.70;99.60
56103;DHT22;41970;48.774;9.280;2023-07-16T08:37:09;23.80;98.70
56103;DHT22;41970;48.774;9.280;2023-07-16T08:39:35;23.80;97.80
56103;DHT22;41970;48.774;9.280;2023-07-16T08:42:01;23.90;98.60
56103;DHT22;41970;48.774;9.280;2023-07-16T08:44:28;23.90;98.60
56103;DHT22;41970;48.774;9.280;2023-07-16T08:46:54;24.00;97.60
56103;DHT22;41970;48.774;9.280;2023-07-16T08:49:22;24.10;98.00
56103;DHT22;41970;48.774;9.280;2023-07-16T08:51:49;24.30;97.70
56103;DHT22;41970;48.774;9.280;2023-07-16T08:54:15;24.30;97.00
56103;DHT22;41970;48.774;9.280;2023-07-16T08:56:43;24.40;96.90
56103;DHT22;41970;48.774;9.280;2023-07-16T08:59:10;24.40;96.10
56103;DHT22;41970;48.774;9.280;2023-07-16T09:01:37;24.50;98.10
56103;DHT22;41970;48.774;9.280;2023-07-16T09:04:03;24.50;96.70
56103;DHT22;41970;48.774;9.280;2023-07-16T09:06:28;24.40;97.60
56103;DHT22;41970;48.774;9.280;2023-07-16T09:08:54;24.50;95.00
56103;DHT22;41970;48.774;9.280;2023-07-16T09:11:21;24.50;94.00
56103;DHT22;41970;48.774;9.280;2023-07-16T09:13:48;24.50;94.10
56103;DHT22;41970;48.774;9.280;2023-07-16T09:16:14;24.60;93.00
56103;DHT22;41970;48.774;9.280;2023-07-16T09:18:43;24.60;94.20
56103;DHT22;41970;48.774;9.280;2023-07-16T09:21:09;24.70;93.70
56103;DHT22;41970;48.774;9.280;2023-07-16T09:23:35;25.00;94.50
56103;DHT22;41970;48.774;9.280;2023-07-16T09:26:02;25.20;93.60
56103;DHT22;41970;48.774;9.280;2023-07-16T09:28:32;25.10;92.20
56103;DHT22;41970;48.774;9.280;2023-07-16T09:31:04;24.90;93.10
56103;DHT22;41970;48.774;9.280;2023-07-16T09:33:31;25.00;94.00
56103;DHT22;41970;48.774;9.280;2023-07-16T09:35:57;25.20;91.60
56103;DHT22;41970;48.774;9.280;2023-07-16T09:38:23;25.30;91.50
56103;DHT22;41970;48.774;9.280;2023-07-16T09:40:51;25.50;90.40
56103;DHT22;41970;48.774;9.280;2023-07-16T09:43:18;25.60;90.50
56103;DHT22;41970;48.774;9.280;2023-07-16T09:45:43;25.80;89.40
56103;DHT22;41970;48.774;9.280;2023-07-16T09:48:10;26.00;88.80
56103;DHT22;41970;48.774;9.280;2023-07-16T09:50:36;25.90;89.60
56103;DHT22;41970;48.774;9.280;2023-07-16T09:53:06;26.00;90.00
56103;DHT22;41970;48.774;9.280;2023-07-16T09:55:34;26.10;87.70
56103;DHT22;41970;48.774;9.280;2023-07-16T09:58:02;26.20;89.40
56103;DHT22;41970;48.774;9.280;2023-07-16T10:00:29;26.20;89.50
56103;DHT22;41970;48.774;9.280;2023-07-16T10:02:55;26.10;87.30
56103;DHT22;41970;48.774;9.280;2023-07-16T10:05:25;26.10;87.00
56103;DHT22;41970;48.774;9.280;2023-07-16T10:10:19;26.20;87.00
56103;DHT22;41970;48.774;9.280;2023-07-16T10:12:56;26.30;88.40
56103;DHT22;41970;48.774;9.280;2023-07-16T10:15:26;26.20;84.80
56103;DHT22;41970;48.774;9.280;2023-07-16T10:17:52;26.20;86.30
56103;DHT22;41970;48.774;9.280;2023-07-16T10:20:30;26.20;86.20
56103;DHT22;41970;48.774;9.280;2023-07-16T10:22:56;26.30;86.00
56103;DHT22;41970;48.774;9.280;2023-07-16T10:25:26;26.30;85.60
56103;DHT22;41970;48.774;9.280;2023-07-16T10:27:53;26.10;85.60
56103;DHT22;41970;48.774;9.280;2023-07-16T10:30:19;26.10;84.80
56103;DHT22;41970;48.774;9.280;2023-07-16T10:32:45;26.20;83.80
56103;DHT22;41970;48.774;9.280;2023-07-16T10:35:12;26.30;83.90
56103;DHT22;41970;48.774;9.280;2023-07-16T10:37:38;26.30;83.90
56103;DHT22;41970;48.774;9.280;2023-07-16T10:40:05;26.30;85.90
56103;DHT22;41970;48.774;9.280;2023-07-16T10:42:35;26.20;85.00
56103;DHT22;41970;48.774;9.280;2023-07-16T10:45:03;26.30;84.10
56103;DHT22;41970;48.774;9.280;2023-07-16T10:47:31;26.30;83.30
56103;DHT22;41970;48.774;9.280;2023-07-16T10:49:58;26.10;84.30
56103;DHT22;41970;48.774;9.280;2023-07-16T10:52:24;26.00;84.30
56103;DHT22;41970;48.774;9.280;2023-07-16T10:54:51;26.00;84.20
56103;DHT22;41970;48.774;9.280;2023-07-16T10:57:24;26.00;86.30
56103;DHT22;41970;48.774;9.280;2023-07-16T10:59:54;26.00;86.60
56103;DHT22;41970;48.774;9.280;2023-07-16T11:02:22;26.20;86.60
56103;DHT22;41970;48.774;9.280;2023-07-16T11:04:48;26.40;85.50
56103;DHT22;41970;48.774;9.280;2023-07-16T11:07:15;26.50;86.10
56103;DHT22;41970;48.774;9.280;2023-07-16T11:09:52;26.60;84.00
56103;DHT22;41970;48.774;9.280;2023-07-16T11:12:21;26.60;85.60
56103;DHT22;41970;48.774;9.280;2023-07-16T11:14:53;26.50;85.00
56103;DHT22;41970;48.774;9.280;2023-07-16T11:17:20;26.30;83.60
56103;DHT22;41970;48.774;9.280;2023-07-16T11:19:49;26.30;84.10
56103;DHT22;41970;48.774;9.280;2023-07-16T11:22:15;26.20;85.00
56103;DHT22;41970;48.774;9.280;2023-07-16T11:24:48;26.10;86.00
56103;DHT22;41970;48.774;9.280;2023-07-16T11:27:27;26.20;84.60
56103;DHT22;41970;48.774;9.280;2023-07-16T11:29:55;26.20;83.10
56103;DHT22;41970;48.774;9.280;2023-07-16T11:32:45;26.30;84.70
56103;DHT22;41970;48.774;9.280;2023-07-16T11:35:16;26.40;82.70
56103;DHT22;41970;48.774;9.280;2023-07-16T11:37:43;26.30;82.20
56103;DHT22;41970;48.774;9.280;2023-07-16T11:40:11;26.30;82.00
56103;DHT22;41970;48.774;9.280;2023-07-16T11:42:38;26.40;83.20
56103;DHT22;41970;48.774;9.280;2023-07-16T11:45:14;26.50;82.00
56103;DHT22;41970;48.774;9.280;2023-07-16T11:47:40;26.50;82.70
56103;DHT22;41970;48.774;9.280;2023-07-16T11:50:07;26.60;83.10
56103;DHT22;41970;48.774;9.280;2023-07-16T11:52:33;26.60;81.90
56103;DHT22;41970;48.774;9.280;2023-07-16T11:54:59;26.60;82.70
56103;DHT22;41970;48.774;9.280;2023-07-16T11:57:30;26.70;82.80
56103;DHT22;41970;48.774;9.280;2023-07-16T11:59:56;26.90;81.40
56103;DHT22;41970;48.774;9.280;2023-07-16T12:02:25;26.80;81.50
56103;DHT22;41970;48.774;9.280;2023-07-16T12:04:51;26.90;81.70
56103;DHT22;41970;48.774;9.280;2023-07-16T12:07:30;27.00;81.20
56103;DHT22;41970;48.774;9.280;2023-07-16T12:09:57;27.00;81.80
56103;DHT22;41970;48.774;9.280;2023-07-16T12:12:22;26.90;81.00
56103;DHT22;41970;48.774;9.280;2023-07-16T12:14:48;26.80;80.30
56103;DHT22;41970;48.774;9.280;2023-07-16T12:17:14;26.90;79.70
56103;DHT22;41970;48.774;9.280;2023-07-16T12:19:39;26.90;79.60
56103;DHT22;41970;48.774;9.280;2023-07-16T12:22:05;26.80;79.90
56103;DHT22;41970;48.774;9.280;2023-07-16T12:24:31;26.70;78.80
56103;DHT22;41970;48.774;9.280;2023-07-16T12:26:57;26.80;80.20
56103;DHT22;41970;48.774;9.280;2023-07-16T12:29:23;26.90;80.60
56103;DHT22;41970;48.774;9.280;2023-07-16T12:31:49;26.70;80.70
56103;DHT22;41970;48.774;9.280;2023-07-16T12:34:15;26.80;81.60
56103;DHT22;41970;48.774;9.280;2023-07-16T12:36:41;26.80;81.70
56103;DHT22;41970;48.774;9.280;2023-07-16T12:39:07;26.90;80.70
56103;DHT22;41970;48.774;9.280;2023-07-16T12:41:32;26.80;80.60
56103;DHT22;41970;48.774;9.280;2023-07-16T12:43:58;27.00;79.90
56103;DHT22;41970;48.774;9.280;2023-07-16T12:46:24;27.10;80.60
56103;DHT22;41970;48.774;9.280;2023-07-16T12:48:50;27.30;79.10
56103;DHT22;41970;48.774;9.280;2023-07-16T12:51:15;27.30;79.00
56103;DHT22;41970;48.774;9.280;2023-07-16T12:53:41;27.20;79.20
56103;DHT22;41970;48.774;9.280;2023-07-16T12:56:09;27.30;80.90
56103;DHT22;41970;48.774;9.280;2023-07-16T12:58:35;27.30;80.70
56103;DHT22;41970;48.774;9.280;2023-07-16T13:01:01;27.20;80.60
56103;DHT22;41970;48.774;9.280;2023-07-16T13:03:27;27.10;80.70
56103;DHT22;41970;48.774;9.280;2023-07-16T13:05:54;27.30;80.00
56103;DHT22;41970;48.774;9.280;2023-07-16T13:08:20;27.40;80.00
56103;DHT22;41970;48.774;9.280;2023-07-16T13:10:46;27.50;79.20
56103;DHT22;41970;48.774;9.280;2023-07-16T13:13:11;27.50;78.50
56103;DHT22;41970;48.774;9.280;2023-07-16T13:15:37;27.50;78.40
56103;DHT22;41970;48.774;9.280;2023-07-16T13:18:03;27.50;78.40
56103;DHT22;41970;48.774;9.280;2023-07-16T13:20:29;27.40;78.20
56103;DHT22;41970;48.774;9.280;2023-07-16T13:22:55;27.40;78.00
56103;DHT22;41970;48.774;9.280;2023-07-16T13:25:21;27.40;79.10
56103;DHT22;41970;48.774;9.280;2023-07-16T13:27:47;27.30;79.00
56103;DHT22;41970;48.774;9.280;2023-07-16T13:30:17;27.40;80.30
56103;DHT22;41970;48.774;9.280;2023-07-16T13:32:43;27.40;79.70
56103;DHT22;41970;48.774;9.280;2023-07-16T13:35:08;27.20;79.70
56103;DHT22;41970;48.774;9.280;2023-07-16T13:37:34;27.10;79.30
56103;DHT22;41970;48.774;9.280;2023-07-16T13:40:01;27.30;78.80
56103;DHT22;41970;48.774;9.280;2023-07-16T13:42:27;27.40;78.40
56103;DHT22;41970;48.774;9.280;2023-07-16T13:44:52;27.30;79.80
56103;DHT22;41970;48.774;9.280;2023-07-16T13:47:18;27.60;78.70
56103;DHT22;41970;48.774;9.280;2023-07-16T13:49:45;27.80;78.90
56103;DHT22;41970;48.774;9.280;2023-07-16T13:52:11;28.00;77.10
56103;DHT22;41970;48.774;9.280;2023-07-16T13:54:36;28.20;77.50
56103;DHT22;41970;48.774;9.280;2023-07-16T13:57:02;28.30;75.50
56103;DHT22;41970;48.774;9.280;2023-07-16T13:59:28;27.90;75.90
56103;DHT22;41970;48.774;9.280;2023-07-16T14:02:01;27.80;76.70
56103;DHT22;41970;48.774;9.280;2023-07-16T14:04:28;27.90;77.20
56103;DHT22;41970;48.774;9.280;2023-07-16T14:06:53;28.20;78.00
56103;DHT22;41970;48.774;9.280;2023-07-16T14:09:20;28.30;76.80
56103;DHT22;41970;48.774;9.280;2023-07-16T14:11:46;28.50;77.20
56103;DHT22;41970;48.774;9.280;2023-07-16T14:14:17;28.60;76.50
56103;DHT22;41970;48.774;9.280;2023-07-16T14:16:43;28.70;76.30
56103;DHT22;41970;48.774;9.280;2023-07-16T14:19:09;28.70;75.70
56103;DHT22;41970;48.774;9.280;2023-07-16T14:21:38;28.80;75.90
56103;DHT22;41970;48.774;9.280;2023-07-16T14:24:04;28.80;77.10
56103;DHT22;41970;48.774;9.280;2023-07-16T14:26:31;28.90;74.80
56103;DHT22;41970;48.774;9.280;2023-07-16T14:28:57;28.90;74.60
56103;DHT22;41970;48.774;9.280;2023-07-16T14:31:23;28.90;73.50
56103;DHT22;41970;48.774;9.280;2023-07-16T14:33:50;28.80;73.80
56103;DHT22;41970;48.774;9.280;2023-07-16T14:36:16;28.70;74.00
56103;DHT22;41970;48.774;9.280;2023-07-16T14:38:42;28.60;75.40
56103;DHT22;41970;48.774;9.280;2023-07-16T14:41:08;28.70;74.00
56103;DHT22;41970;48.774;9.280;2023-07-16T14:43:35;28.60;74.60
56103;DHT22;41970;48.774;9.280;2023-07-16T14:46:02;28.50;73.90
56103;DHT22;41970;48.774;9.280;2023-07-16T14:48:28;28.30;74.90
56103;DHT22;41970;48.774;9.280;2023-07-16T14:50:54;28.00;76.40
56103;DHT22;41970;48.774;9.280;2023-07-16T14:53:20;28.20;76.00
56103;DHT22;41970;48.774;9.280;2023-07-16T14:55:47;28.30;75.90
56103;DHT22;41970;48.774;9.280;2023-07-16T14:58:13;28.10;75.60
56103;DHT22;41970;48.774;9.280;2023-07-16T15:00:39;27.60;75.90
56103;DHT22;41970;48.774;9.280;2023-07-16T15:03:06;27.50;77.00
56103;DHT22;41970;48.774;9.280;2023-07-16T15:05:31;27.70;75.10
56103;DHT22;41970;48.774;9.280;2023-07-16T15:07:57;27.90;74.40
56103;DHT22;41970;48.774;9.280;2023-07-16T15:10:23;27.90;73.80
56103;DHT22;41970;48.774;9.280;2023-07-16T15:12:49;28.00;75.50
56103;DHT22;41970;48.774;9.280;2023-07-16T15:15:15;28.00;75.20
56103;DHT22;41970;48.774;9.280;2023-07-16T15:17:40;28.10;76.30
56103;DHT22;41970;48.774;9.280;2023-07-16T15:20:07;28.10;76.20
56103;DHT22;41970;48.774;9.280;2023-07-16T15:22:34;28.00;77.80
56103;DHT22;41970;48.774;9.280;2023-07-16T15:24:59;28.00;76.80
56103;DHT22;41970;48.774;9.280;2023-07-16T15:27:27;27.90;76.50
56103;DHT22;41970;48.774;9.280;2023-07-16T15:29:52;27.90;76.80
56103;DHT22;41970;48.774;9.280;2023-07-16T15:32:19;27.80;76.10
56103;DHT22;41970;48.774;9.280;2023-07-16T15:34:45;27.80;75.70